createdAt,value
2018-09-01T00:00:45.057Z,14.37
2018-09-01T00:01:45.592Z,14.33
2018-09-01T00:02:45.615Z,14.36
2018-09-01T00:03:45.638Z,14.4
2018-09-01T00:04:45.408Z,14.47
2018-09-01T00:05:45.429Z,14.37
2018-09-01T00:06:45.455Z,14.46
2018-09-01T00:07:45.726Z,14.42
2018-09-01T00:08:45.755Z,14.46
2018-09-01T00:09:45.765Z,14.43
2018-09-01T00:10:45.535Z,14.4
2018-09-01T00:11:45.822Z,14.4
2018-09-01T00:12:45.833Z,14.35
2018-09-01T00:14:00.515Z,14.33
2018-09-01T00:14:45.617Z,14.36
2018-09-01T00:15:45.901Z,14.37
2018-09-01T00:17:45.943Z,14.22
2018-09-01T00:18:45.972Z,14.18
2018-09-01T00:19:45.777Z,14.17
2018-09-01T00:20:45.749Z,14.18
2018-09-01T00:21:46.027Z,14.21
2018-09-01T00:22:46.053Z,14.22
2018-09-01T00:23:45.813Z,14.27
2018-09-01T00:24:45.843Z,14.2
2018-09-01T00:25:46.116Z,14.12
2018-09-01T00:26:45.880Z,14.2
2018-09-01T00:27:46.159Z,14.17
2018-09-01T00:29:00.842Z,14.2
2018-09-01T00:29:46.209Z,14.17
2018-09-01T00:30:46.537Z,14.22
2018-09-01T00:31:46.251Z,14.25
2018-09-01T00:32:46.273Z,14.28
2018-09-01T00:33:46.291Z,14.33
2018-09-01T00:34:46.055Z,14.29
2018-09-01T00:35:46.339Z,14.35
2018-09-01T00:36:46.361Z,14.27
2018-09-01T00:37:46.381Z,14.35
2018-09-01T00:38:46.400Z,14.18
2018-09-01T00:39:46.281Z,14.29
2018-09-01T00:40:46.443Z,14.2
2018-09-01T00:41:46.470Z,14.27
2018-09-01T00:42:46.489Z,14.28
2018-09-01T00:43:46.516Z,14.29
2018-09-01T00:44:46.275Z,14.28
2018-09-01T00:45:46.553Z,14.28
2018-09-01T00:46:46.316Z,14.24
2018-09-01T00:47:46.348Z,14.17
2018-09-01T00:48:46.620Z,14.15
2018-09-01T00:49:46.640Z,14.15
2018-09-01T00:50:46.767Z,14.22
2018-09-01T00:51:46.684Z,14.2
2018-09-01T00:52:46.446Z,14.2
2018-09-01T00:53:46.727Z,14.17
2018-09-01T00:54:46.748Z,14.29
2018-09-01T00:55:46.777Z,14.32
2018-09-01T00:56:46.789Z,14.24
2018-09-01T00:57:46.833Z,14.18
2018-09-01T00:58:46.838Z,14.15
2018-09-01T00:59:46.857Z,14.15
2018-09-01T01:01:01.539Z,14.2
2018-09-01T01:02:46.666Z,14.14
2018-09-01T01:03:46.942Z,14.06
2018-09-01T01:04:46.974Z,14.12
2018-09-01T01:05:46.734Z,14.07
2018-09-01T01:06:47.013Z,14.09
2018-09-01T01:07:47.033Z,14.12
2018-09-01T01:08:47.061Z,14.09
2018-09-01T01:09:47.075Z,14.06
2018-09-01T01:10:47.093Z,14.02
2018-09-01T01:11:47.118Z,14.14
2018-09-01T01:12:46.887Z,14.04
2018-09-01T01:13:47.162Z,14.2
2018-09-01T01:14:46.930Z,14.15
2018-09-01T01:15:47.251Z,14.14
2018-09-01T01:17:01.888Z,14.15
2018-09-01T01:17:47.247Z,14.14
2018-09-01T01:21:47.334Z,14.09
2018-09-01T01:22:47.358Z,14.24
2018-09-01T01:23:47.381Z,14.15
2018-09-01T01:24:47.165Z,14.22
2018-09-01T01:26:02.084Z,14.2
2018-09-01T01:26:47.450Z,14.17
2018-09-01T01:27:47.466Z,14.17
2018-09-01T01:28:47.503Z,14.17
2018-09-01T01:30:47.529Z,14.24
2018-09-01T01:31:47.553Z,14.27
2018-09-01T01:33:47.603Z,14.27
2018-09-01T01:35:47.646Z,14.36
2018-09-01T01:36:47.662Z,14.25
2018-09-01T01:37:47.685Z,14.35
2018-09-01T01:38:47.705Z,14.35
2018-09-01T01:39:47.726Z,14.17
2018-09-01T01:40:47.489Z,14.18
2018-09-01T01:42:02.434Z,14.25
2018-09-01T01:42:47.795Z,14.25
2018-09-01T01:43:47.818Z,14.17
2018-09-01T01:44:47.582Z,14.17
2018-09-01T01:45:47.858Z,14.22
2018-09-01T01:46:47.881Z,14.24
2018-09-01T01:47:47.901Z,14.29
2018-09-01T01:49:02.583Z,14.24
2018-09-01T01:49:48.325Z,14.17
2018-09-01T01:50:47.984Z,14.12
2018-09-01T01:51:47.729Z,14.06
2018-09-01T01:52:48.014Z,14.02
2018-09-01T01:53:48.035Z,14.06
2018-09-01T01:54:47.803Z,14.04
2018-09-01T01:55:48.073Z,13.95
2018-09-01T01:56:48.098Z,13.88
2018-09-01T01:57:47.864Z,14
2018-09-01T01:58:47.632Z,13.88
2018-09-01T01:59:48.164Z,13.75
2018-09-01T02:00:48.187Z,13.79
2018-09-01T02:01:47.965Z,13.77
2018-09-01T02:02:48.224Z,13.73
2018-09-01T02:04:02.909Z,13.62
2018-09-01T02:04:48.011Z,13.62
2018-09-01T02:05:48.294Z,13.67
2018-09-01T02:06:48.317Z,13.51
2018-09-01T02:07:48.334Z,13.51
2018-09-01T02:08:48.362Z,13.52
2018-09-01T02:09:48.119Z,13.49
2018-09-01T02:11:03.062Z,13.62
2018-09-01T02:11:48.420Z,13.54
2018-09-01T02:13:03.108Z,13.38
2018-09-01T02:13:48.470Z,13.44
2018-09-01T02:14:48.492Z,13.52
2018-09-01T02:15:48.509Z,13.41
2018-09-01T02:16:48.531Z,13.36
2018-09-01T02:17:48.560Z,13.36
2018-09-01T02:18:48.314Z,13.52
2018-09-01T02:19:48.597Z,13.36
2018-09-01T02:20:48.352Z,13.38
2018-09-01T02:21:48.641Z,13.3
2018-09-01T02:22:48.677Z,13.22
2018-09-01T02:23:48.683Z,13.26
2018-09-01T02:24:48.699Z,13.19
2018-09-01T02:25:48.717Z,13.32
2018-09-01T02:26:48.764Z,13.22
2018-09-01T02:27:48.509Z,13.19
2018-09-01T02:28:48.527Z,13.22
2018-09-01T02:29:48.818Z,13.19
2018-09-01T02:30:48.850Z,13.25
2018-09-01T02:31:48.851Z,13.23
2018-09-01T02:32:48.871Z,13.12
2018-09-01T02:33:48.890Z,13.22
2018-09-01T02:36:48.699Z,13.01
2018-09-01T02:37:48.980Z,13.08
2018-09-01T02:38:48.999Z,13.05
2018-09-01T02:39:49.025Z,13.14
2018-09-01T02:40:49.042Z,13.04
2018-09-01T02:41:49.063Z,13.01
2018-09-01T02:42:48.827Z,13.05
2018-09-01T02:43:49.108Z,12.93
2018-09-01T02:44:49.130Z,13.08
2018-09-01T02:45:49.149Z,12.93
2018-09-01T02:46:49.170Z,12.92
2018-09-01T02:47:49.190Z,12.96
2018-09-01T02:48:48.955Z,12.92
2018-09-01T02:49:49.237Z,12.85
2018-09-01T02:50:49.257Z,12.79
2018-09-01T02:52:03.936Z,12.78
2018-09-01T02:53:49.060Z,12.77
2018-09-01T02:54:49.080Z,12.85
2018-09-01T02:55:49.360Z,12.78
2018-09-01T02:56:49.132Z,12.72
2018-09-01T02:57:49.403Z,12.77
2018-09-01T02:58:49.431Z,12.79
2018-09-01T02:59:49.447Z,12.79
2018-09-01T03:00:49.208Z,12.7
2018-09-01T03:02:04.149Z,12.65
2018-09-01T03:02:49.508Z,12.62
2018-09-01T03:03:49.537Z,12.62
2018-09-01T03:04:49.297Z,12.49
2018-09-01T03:05:49.319Z,12.57
2018-09-01T03:06:49.596Z,12.49
2018-09-01T03:08:04.279Z,12.42
2018-09-01T03:08:49.638Z,12.37
2018-09-01T03:09:49.657Z,12.37
2018-09-01T03:11:49.701Z,12.49
2018-09-01T03:12:49.717Z,12.45
2018-09-01T03:13:49.486Z,12.41
2018-09-01T03:14:49.761Z,12.42
2018-09-01T03:15:49.533Z,12.42
2018-09-01T03:17:04.469Z,12.39
2018-09-01T03:17:49.853Z,12.38
2018-09-01T03:18:49.857Z,12.34
2018-09-01T03:19:49.868Z,12.45
2018-09-01T03:20:49.892Z,12.47
2018-09-01T03:21:49.919Z,12.35
2018-09-01T03:22:49.939Z,12.38
2018-09-01T03:24:49.719Z,12.37
2018-09-01T03:25:49.995Z,12.39
2018-09-01T03:26:50.012Z,12.29
2018-09-01T03:27:50.036Z,12.35
2018-09-01T03:28:50.075Z,12.37
2018-09-01T03:29:50.126Z,12.31
2018-09-01T03:30:50.137Z,12.35
2018-09-01T03:31:50.219Z,12.45
2018-09-01T03:32:50.148Z,12.38
2018-09-01T03:33:50.167Z,12.41
2018-09-01T03:34:50.199Z,12.41
2018-09-01T03:35:50.204Z,12.21
2018-09-01T03:36:50.296Z,12.28
2018-09-01T03:37:50.252Z,12.31
2018-09-01T03:39:04.675Z,12.28
2018-09-01T03:39:50.293Z,12.14
2018-09-01T03:40:50.312Z,12.13
2018-09-01T03:41:50.339Z,12.13
2018-09-01T03:42:50.352Z,12.12
2018-09-01T03:44:05.040Z,12.09
2018-09-01T03:44:50.394Z,12.17
2018-09-01T03:45:50.158Z,12.21
2018-09-01T03:46:50.435Z,12.23
2018-09-01T03:47:50.458Z,12.27
2018-09-01T03:48:50.480Z,12.24
2018-09-01T03:49:50.646Z,12.27
2018-09-01T03:50:50.528Z,12.24
2018-09-01T03:51:50.285Z,12.28
2018-09-01T03:52:50.564Z,12.28
2018-09-01T03:53:50.589Z,12.24
2018-09-01T03:55:05.371Z,12.19
2018-09-01T03:55:50.364Z,12.19
2018-09-01T03:56:50.388Z,12.23
2018-09-01T03:57:50.667Z,12.2
2018-09-01T03:58:50.428Z,12.21
2018-09-01T03:59:50.556Z,12.24
2018-09-01T04:00:50.470Z,12.19
2018-09-01T04:01:50.493Z,12.21
2018-09-01T04:02:50.785Z,12.13
2018-09-01T04:04:05.453Z,12.13
2018-09-01T04:04:50.812Z,12.2
2018-09-01T04:06:05.235Z,12.2
2018-09-01T04:06:50.849Z,12.2
2018-09-01T04:07:50.880Z,12.12
2018-09-01T04:08:50.896Z,12.16
2018-09-01T04:09:50.927Z,12.17
2018-09-01T04:11:05.337Z,12.17
2018-09-01T04:11:50.699Z,12.12
2018-09-01T04:14:05.696Z,12.13
2018-09-01T04:14:51.020Z,12.13
2018-09-01T04:15:51.043Z,12.14
2018-09-01T04:16:51.062Z,12.02
2018-09-01T04:18:05.742Z,12.19
2018-09-01T04:18:51.101Z,12.09
2018-09-01T04:19:51.121Z,12.17
2018-09-01T04:20:51.141Z,12.19
2018-09-01T04:21:51.169Z,12.09
2018-09-01T04:22:51.290Z,12.17
2018-09-01T04:23:50.947Z,12.14
2018-09-01T04:24:51.232Z,12.19
2018-09-01T04:25:50.992Z,12.24
2018-09-01T04:27:05.937Z,12.24
2018-09-01T04:27:51.031Z,12.19
2018-09-01T04:28:51.053Z,12.24
2018-09-01T04:30:51.349Z,12.34
2018-09-01T04:31:51.485Z,12.35
2018-09-01T04:33:06.057Z,12.37
2018-09-01T04:33:51.422Z,12.34
2018-09-01T04:35:06.096Z,12.28
2018-09-01T04:35:51.453Z,12.41
2018-09-01T04:37:51.507Z,12.34
2018-09-01T04:38:51.519Z,12.42
2018-09-01T04:39:51.538Z,12.46
2018-09-01T04:40:51.563Z,12.57
2018-09-01T04:41:51.424Z,12.62
2018-09-01T04:43:06.262Z,12.65
2018-09-01T04:43:51.373Z,12.57
2018-09-01T04:44:51.126Z,12.68
2018-09-01T04:45:51.151Z,12.67
2018-09-01T04:46:51.715Z,12.68
2018-09-01T04:47:51.449Z,12.68
2018-09-01T04:48:51.468Z,12.71
2018-09-01T04:49:51.751Z,12.75
2018-09-01T04:50:51.769Z,12.87
2018-09-01T04:51:51.795Z,13.1
2018-09-01T04:52:51.810Z,13.19
2018-09-01T04:54:06.234Z,13.33
2018-09-01T04:54:51.600Z,13.51
2018-09-01T04:55:51.870Z,13.54
2018-09-01T04:56:51.894Z,13.62
2018-09-01T04:57:51.917Z,13.6
2018-09-01T04:59:06.598Z,13.69
2018-09-01T04:59:51.964Z,13.6
2018-09-01T05:00:52.146Z,13.69
2018-09-01T05:01:51.753Z,13.77
2018-09-01T05:02:52.025Z,13.77
2018-09-01T05:03:52.050Z,13.78
2018-09-01T05:04:52.068Z,13.78
2018-09-01T05:05:52.089Z,13.91
2018-09-01T05:08:06.792Z,14.2
2018-09-01T05:09:06.813Z,14.21
2018-09-01T05:09:51.922Z,14.25
2018-09-01T05:10:52.198Z,14.33
2018-09-01T05:11:51.963Z,14.2
2018-09-01T05:12:52.242Z,14.18
2018-09-01T05:14:06.924Z,14.25
2018-09-01T05:15:52.062Z,14.15
2018-09-01T05:16:52.429Z,14.1
2018-09-01T05:17:52.380Z,14.06
2018-09-01T05:19:52.396Z,14.15
2018-09-01T05:20:52.159Z,14.24
2018-09-01T05:21:52.448Z,14.24
2018-09-01T05:22:52.461Z,14.29
2018-09-01T05:23:52.636Z,14.36
2018-09-01T05:24:52.508Z,14.47
2018-09-01T05:25:52.528Z,14.46
2018-09-01T05:26:52.548Z,14.51
2018-09-01T05:27:52.318Z,14.54
2018-09-01T05:28:52.591Z,14.62
2018-09-01T05:29:52.365Z,14.58
2018-09-01T05:30:52.641Z,14.58
2018-09-01T05:31:52.663Z,14.64
2018-09-01T05:34:52.727Z,14.7
2018-09-01T05:35:52.749Z,14.64
2018-09-01T05:36:52.515Z,14.8
2018-09-01T05:37:52.793Z,15.1
2018-09-01T05:39:07.478Z,15.41
2018-09-01T05:40:07.243Z,15.57
2018-09-01T05:41:07.268Z,15.54
2018-09-01T05:41:52.884Z,15.65
2018-09-01T05:42:52.916Z,15.59
2018-09-01T05:43:53.148Z,15.51
2018-09-01T05:44:52.953Z,15.49
2018-09-01T05:46:07.648Z,15.53
2018-09-01T05:46:53.002Z,15.47
2018-09-01T05:47:53.022Z,15.49
2018-09-01T05:48:53.045Z,15.51
2018-09-01T05:49:52.813Z,15.6
2018-09-01T05:50:53.459Z,15.57
2018-09-01T05:51:53.117Z,15.74
2018-09-01T05:52:53.140Z,15.8
2018-09-01T05:53:53.162Z,15.86
2018-09-01T05:54:53.190Z,16.33
2018-09-01T05:55:52.949Z,16.64
2018-09-01T05:56:52.719Z,17.12
2018-09-01T05:57:53.254Z,17.41
2018-09-01T05:58:53.020Z,17.55
2018-09-01T05:59:53.045Z,17.71
2018-09-01T06:00:53.326Z,18.11
2018-09-01T06:02:07.753Z,18.39
2018-09-01T06:02:53.384Z,18.47
2018-09-01T06:03:53.397Z,18.62
2018-09-01T06:04:53.424Z,18.55
2018-09-01T06:05:53.638Z,18.7
2018-09-01T06:06:53.215Z,19.1
2018-09-01T06:07:53.501Z,18.95
2018-09-01T06:08:53.531Z,19.21
2018-09-01T06:09:53.554Z,19.55
2018-09-01T06:11:08.239Z,19.78
2018-09-01T06:12:08.264Z,19.77
2018-09-01T06:12:53.629Z,19.69
2018-09-01T06:13:53.402Z,19.99
2018-09-01T06:14:53.433Z,20.16
2018-09-01T06:15:53.715Z,20.29
2018-09-01T06:16:53.525Z,20.16
2018-09-01T06:18:08.432Z,20.11
2018-09-01T06:18:53.279Z,20.33
2018-09-01T06:19:53.563Z,20.59
2018-09-01T06:20:53.851Z,20.77
2018-09-01T06:21:53.878Z,20.91
2018-09-01T06:22:53.659Z,21.24
2018-09-01T06:23:54.103Z,21.61
2018-09-01T06:24:54.159Z,21.98
2018-09-01T06:25:53.732Z,22.25
2018-09-01T06:26:53.864Z,22.4
2018-09-01T06:27:54.057Z,22.68
2018-09-01T06:29:08.485Z,22.65
2018-09-01T06:29:53.852Z,22.77
2018-09-01T06:30:53.623Z,22.94
2018-09-01T06:31:54.169Z,22.95
2018-09-01T06:32:54.406Z,22.92
2018-09-01T06:34:08.891Z,22.62
2018-09-01T06:34:54.001Z,22.45
2018-09-01T06:35:54.317Z,22.54
2018-09-01T06:36:54.316Z,22.46
2018-09-01T06:37:54.384Z,22.51
2018-09-01T06:38:54.381Z,22.7
2018-09-01T06:39:54.407Z,22.55
2018-09-01T06:40:54.435Z,22.75
2018-09-01T06:41:54.209Z,22.88
2018-09-01T06:42:54.542Z,23.02
2018-09-01T06:43:54.272Z,23.42
2018-09-01T06:44:54.559Z,23.51
2018-09-01T06:45:54.330Z,23.8
2018-09-01T06:46:54.363Z,23.51
2018-09-01T06:49:09.353Z,23.6
2018-09-01T06:49:54.457Z,23.76
2018-09-01T06:50:54.749Z,23.61
2018-09-01T06:51:54.776Z,23.35
2018-09-01T06:52:54.807Z,23.27
2018-09-01T06:54:09.499Z,22.94
2018-09-01T06:54:54.870Z,22.75
2018-09-01T06:55:54.992Z,22.72
2018-09-01T06:56:54.925Z,22.95
2018-09-01T06:57:55.055Z,23.22
2018-09-01T06:58:54.982Z,23.47
2018-09-01T06:59:54.755Z,23.7
2018-09-01T07:00:55.044Z,23.76
2018-09-01T07:01:55.074Z,23.85
2018-09-01T07:02:55.110Z,23.72
2018-09-01T07:03:55.133Z,24.15
2018-09-01T07:04:54.907Z,24.45
2018-09-01T07:05:55.192Z,24.46
2018-09-01T07:06:54.975Z,23.9
2018-09-01T07:07:55.258Z,23.84
2018-09-01T07:10:55.355Z,24.42
2018-09-01T07:11:55.391Z,24.73
2018-09-01T07:12:55.168Z,24.76
2018-09-01T07:13:55.449Z,24.99
2018-09-01T07:14:55.483Z,24.96
2018-09-01T07:16:10.174Z,25.03
2018-09-01T07:16:55.030Z,25.21
2018-09-01T07:17:55.320Z,25.42
2018-09-01T07:18:55.606Z,25.42
2018-09-01T07:19:55.638Z,25.09
2018-09-01T07:21:10.334Z,24.67
2018-09-01T07:21:55.445Z,24.43
2018-09-01T07:22:55.477Z,24.15
2018-09-01T07:23:55.771Z,24.4
2018-09-01T07:24:55.806Z,24.67
2018-09-01T07:25:55.575Z,24.96
2018-09-01T07:26:55.606Z,25.35
2018-09-01T07:27:55.901Z,25.76
2018-09-01T07:28:55.926Z,26.12
2018-09-01T07:29:55.960Z,26.01
2018-09-01T07:30:57.311Z,25.91
2018-09-01T07:31:56.027Z,25.58
2018-09-01T07:32:55.544Z,25.25
2018-09-01T07:33:56.092Z,25.39
2018-09-01T07:34:56.171Z,25.7
2018-09-01T07:35:56.155Z,25.83
2018-09-01T07:37:10.853Z,25.85
2018-09-01T07:37:56.233Z,25.9
2018-09-01T07:39:56.285Z,25.47
2018-09-01T07:40:56.316Z,25.32
2018-09-01T07:41:56.096Z,24.6
2018-09-01T07:42:56.385Z,24.46
2018-09-01T07:43:56.414Z,24.62
2018-09-01T07:44:56.461Z,24.47
2018-09-01T07:45:56.477Z,24.52
2018-09-01T07:47:10.915Z,25.23
2018-09-01T07:47:56.290Z,25.47
2018-09-01T07:48:56.063Z,25.28
2018-09-01T07:49:56.671Z,24.65
2018-09-01T07:50:56.645Z,24.93
2018-09-01T07:51:56.513Z,25.45
2018-09-01T07:53:11.363Z,26.05
2018-09-01T07:53:56.474Z,26.37
2018-09-01T07:54:56.776Z,26.39
2018-09-01T07:55:56.610Z,26.7
2018-09-01T07:57:56.860Z,26.6
2018-09-01T07:58:56.893Z,25.97
2018-09-01T07:59:56.964Z,25.88
2018-09-01T08:00:57.014Z,26.02
2018-09-01T08:01:57.011Z,26.2
2018-09-01T08:02:57.025Z,25.55
2018-09-01T08:04:11.718Z,25.82
2018-09-01T08:04:57.091Z,26.21
2018-09-01T08:05:57.121Z,26.5
2018-09-01T08:06:57.158Z,26.77
2018-09-01T08:07:57.197Z,26.87
2018-09-01T08:09:11.627Z,26.43
2018-09-01T08:09:57.261Z,26.69
2018-09-01T08:11:57.061Z,27.1
2018-09-01T08:12:57.353Z,27.18
2018-09-01T08:13:57.990Z,27.34
2018-09-01T08:14:57.417Z,27.43
2018-09-01T08:15:57.448Z,27.43
2018-09-01T08:16:57.487Z,27.54
2018-09-01T08:17:57.557Z,27.69
2018-09-01T08:18:57.546Z,27.54
2018-09-01T08:19:57.580Z,27.7
2018-09-01T08:20:57.612Z,27.7
2018-09-01T08:23:12.357Z,27.74
2018-09-01T08:24:12.378Z,27.87
2018-09-01T08:24:57.495Z,27.59
2018-09-01T08:26:12.503Z,26.75
2018-09-01T08:26:57.815Z,26.73
2018-09-01T08:27:57.845Z,27
2018-09-01T08:28:57.876Z,27.17
2018-09-01T08:29:57.654Z,26.76
2018-09-01T08:30:57.686Z,26.89
2018-09-01T08:32:12.641Z,27.07
2018-09-01T08:32:58.007Z,27.04
2018-09-01T08:33:58.160Z,26.84
2018-09-01T08:34:58.079Z,26.36
2018-09-01T08:35:58.109Z,26.62
2018-09-01T08:36:58.147Z,26.76
2018-09-01T08:37:58.174Z,26.99
2018-09-01T08:38:58.206Z,27.09
2018-09-01T08:39:57.982Z,27.21
2018-09-01T08:40:58.270Z,27.36
2018-09-01T08:41:58.305Z,27.22
2018-09-01T08:42:58.337Z,26.72
2018-09-01T08:43:58.209Z,26.58
2018-09-01T08:44:58.400Z,26.82
2018-09-01T08:45:58.177Z,27.04
2018-09-01T08:46:58.470Z,27.41
2018-09-01T08:47:58.505Z,26.95
2018-09-01T08:49:13.193Z,26.57
2018-09-01T08:49:58.562Z,26.51
2018-09-01T08:50:58.595Z,27.06
2018-09-01T08:51:58.624Z,26.97
2018-09-01T08:52:58.658Z,26.92
2018-09-01T08:53:58.690Z,27.09
2018-09-01T08:54:58.466Z,27.1
2018-09-01T08:56:13.419Z,26.99
2018-09-01T08:56:58.802Z,27.09
2018-09-01T08:57:58.820Z,27.44
2018-09-01T08:58:58.853Z,27.17
2018-09-01T08:59:58.630Z,26.76
2018-09-01T09:00:58.917Z,25.98
2018-09-01T09:01:58.949Z,25.75
2018-09-01T09:02:58.985Z,26.32
2018-09-01T09:03:58.760Z,26.62
2018-09-01T09:05:13.711Z,27.36
2018-09-01T09:05:59.081Z,27.63
2018-09-01T09:06:59.107Z,27.63
2018-09-01T09:07:59.140Z,27.84
2018-09-01T09:08:59.176Z,27.44
2018-09-01T09:09:59.208Z,27.14
2018-09-01T09:10:58.976Z,27.18
2018-09-01T09:12:13.928Z,27.34
2018-09-01T09:12:59.301Z,27.85
2018-09-01T09:13:59.363Z,28.46
2018-09-01T09:14:59.368Z,28.48
2018-09-01T09:17:14.090Z,29.06
2018-09-01T09:17:59.458Z,28.98
2018-09-01T09:18:59.568Z,28.24
2018-09-01T09:19:59.519Z,27.6
2018-09-01T09:20:59.547Z,27.97
2018-09-01T09:22:14.243Z,27.6
2018-09-01T09:22:59.613Z,27.25
2018-09-01T09:23:59.649Z,26.92
2018-09-01T09:24:59.677Z,26.63
2018-09-01T09:25:59.710Z,26.32
2018-09-01T09:26:59.481Z,26.17
2018-09-01T09:28:14.437Z,25.9
2018-09-01T09:28:59.807Z,25.94
2018-09-01T09:29:59.835Z,25.61
2018-09-01T09:30:59.861Z,25.3
2018-09-01T09:31:59.637Z,25.18
2018-09-01T09:32:59.922Z,25.09
2018-09-01T09:33:59.958Z,25.62
2018-09-01T09:34:59.991Z,25.75
2018-09-01T09:36:14.678Z,26.47
2018-09-01T09:37:00.042Z,27
2018-09-01T09:38:00.075Z,27.55
2018-09-01T09:39:00.102Z,27.21
2018-09-01T09:40:00.131Z,27.27
2018-09-01T09:40:59.906Z,27.72
2018-09-01T09:42:00.624Z,28.43
2018-09-01T09:43:00.223Z,28.39
2018-09-01T09:44:14.915Z,28.12
2018-09-01T09:45:00.280Z,27.31
2018-09-01T09:47:00.345Z,25.13
2018-09-01T09:48:00.113Z,24.71
2018-09-01T09:49:00.405Z,24.93
2018-09-01T09:50:00.431Z,25.09
2018-09-01T09:51:00.202Z,25.24
2018-09-01T09:52:00.237Z,25.15
2018-09-01T09:53:00.060Z,25.42
2018-09-01T09:54:15.212Z,26.18
2018-09-01T09:55:00.322Z,26.5
2018-09-01T09:56:00.611Z,27.19
2018-09-01T09:57:00.653Z,27.49
2018-09-01T09:58:00.410Z,27.85
2018-09-01T09:59:15.360Z,27.62
2018-09-01T10:01:00.645Z,27.31
2018-09-01T10:02:00.787Z,27.39
2018-09-01T10:03:00.818Z,27.27
2018-09-01T10:04:00.907Z,27.41
2018-09-01T10:05:00.618Z,27.43
2018-09-01T10:06:15.572Z,27.29
2018-09-01T10:07:00.936Z,27.18
2018-09-01T10:08:00.967Z,26.43
2018-09-01T10:09:01.057Z,26.55
2018-09-01T10:10:00.768Z,26.7
2018-09-01T10:11:01.194Z,26.75
2018-09-01T10:12:01.085Z,26.44
2018-09-01T10:13:01.117Z,26.4
2018-09-01T10:15:01.173Z,26.17
2018-09-01T10:16:01.666Z,25.87
2018-09-01T10:18:01.263Z,25.42
2018-09-01T10:19:01.030Z,25.05
2018-09-01T10:20:01.146Z,25.05
2018-09-01T10:21:01.355Z,25.06
2018-09-01T10:22:01.122Z,25.05
2018-09-01T10:23:01.251Z,25.03
2018-09-01T10:24:01.441Z,25.09
2018-09-01T10:25:01.210Z,25.15
2018-09-01T10:26:01.237Z,25.21
2018-09-01T10:27:16.247Z,24.62
2018-09-01T10:28:01.297Z,23.91
2018-09-01T10:29:01.580Z,24.13
2018-09-01T10:30:01.355Z,24.12
2018-09-01T10:31:16.299Z,24.43
2018-09-01T10:32:01.673Z,24.67
2018-09-01T10:33:01.457Z,25.15
2018-09-01T10:34:01.777Z,25.25
2018-09-01T10:35:01.791Z,25.09
2018-09-01T10:36:01.521Z,25.02
2018-09-01T10:37:01.554Z,25.25
2018-09-01T10:38:01.579Z,25.43
2018-09-01T10:39:01.613Z,25.69
2018-09-01T10:40:16.553Z,25.72
2018-09-01T10:41:16.581Z,25.4
2018-09-01T10:42:01.977Z,24.83
2018-09-01T10:43:01.973Z,24.43
2018-09-01T10:44:02.007Z,24.32
2018-09-01T10:45:02.040Z,24.46
2018-09-01T10:46:01.801Z,24.28
2018-09-01T10:47:16.751Z,24.13
2018-09-01T10:48:02.331Z,23.94
2018-09-01T10:49:01.884Z,24
2018-09-01T10:51:01.945Z,24.55
2018-09-01T10:53:02.255Z,23.87
2018-09-01T10:54:02.286Z,23.58
2018-09-01T10:55:02.311Z,23.32
2018-09-01T10:56:02.334Z,22.95
2018-09-01T10:57:16.769Z,22.91
2018-09-01T10:58:02.393Z,22.94
2018-09-01T10:59:03.110Z,22.75
2018-09-01T11:00:02.189Z,22.68
2018-09-01T11:01:02.479Z,22.83
2018-09-01T11:02:02.512Z,22.94
2018-09-01T11:03:17.277Z,22.97
2018-09-01T11:04:02.553Z,23.02
2018-09-01T11:06:02.609Z,23.05
2018-09-01T11:07:02.636Z,23.1
2018-09-01T11:08:02.409Z,23.07
2018-09-01T11:09:02.689Z,23
2018-09-01T11:10:02.726Z,23.28
2018-09-01T11:11:17.410Z,23.28
2018-09-01T11:12:02.772Z,23.36
2018-09-01T11:13:02.802Z,23.65
2018-09-01T11:14:02.823Z,23.8
2018-09-01T11:15:02.593Z,23.79
2018-09-01T11:16:02.881Z,24
2018-09-01T11:17:02.902Z,24.27
2018-09-01T11:18:02.983Z,24.47
2018-09-01T11:19:17.620Z,24.37
2018-09-01T11:20:03.033Z,24.46
2018-09-01T11:21:03.259Z,24.61
2018-09-01T11:22:02.521Z,24.67
2018-09-01T11:23:03.092Z,24.61
2018-09-01T11:24:03.092Z,24.64
2018-09-01T11:26:03.149Z,24.76
2018-09-01T11:27:17.849Z,24.93
2018-09-01T11:29:02.967Z,25.23
2018-09-01T11:30:03.254Z,25.27
2018-09-01T11:31:03.022Z,25.05
2018-09-01T11:32:03.051Z,25.1
2018-09-01T11:33:03.074Z,24.96
2018-09-01T11:34:17.764Z,25.05
2018-09-01T11:35:03.129Z,24.99
2018-09-01T11:36:18.083Z,25.06
2018-09-01T11:37:03.444Z,25.24
2018-09-01T11:38:03.481Z,25.55
2018-09-01T11:39:03.498Z,25.83
2018-09-01T11:40:03.522Z,26.02
2018-09-01T11:42:03.323Z,26.09
2018-09-01T11:43:04.519Z,26.05
2018-09-01T11:44:18.035Z,25.27
2018-09-01T11:45:18.317Z,25.25
2018-09-01T11:46:03.693Z,25.3
2018-09-01T11:47:03.714Z,25.33
2018-09-01T11:48:03.484Z,25.42
2018-09-01T11:49:03.765Z,25.28
2018-09-01T11:50:04.017Z,25.27
2018-09-01T11:51:03.818Z,25.23
2018-09-01T11:52:03.718Z,24.85
2018-09-01T11:53:03.685Z,24.09
2018-09-01T11:54:03.660Z,24.08
2018-09-01T11:57:03.465Z,24.43
2018-09-01T11:58:04.009Z,24.43
2018-09-01T11:59:03.780Z,24.43
2018-09-01T12:00:03.810Z,24.6
2018-09-01T12:01:04.114Z,24.8
2018-09-01T12:02:03.872Z,24.77
2018-09-01T12:03:04.141Z,24.73
2018-09-01T12:04:03.657Z,24.78
2018-09-01T12:05:03.936Z,24.98
2018-09-01T12:06:18.907Z,25.18
2018-09-01T12:07:04.274Z,25.28
2018-09-01T12:08:04.018Z,25.39
2018-09-01T12:09:04.354Z,25.58
2018-09-01T12:10:04.076Z,25.73
2018-09-01T12:11:04.096Z,25.64
2018-09-01T12:12:04.450Z,25.76
2018-09-01T12:13:04.423Z,25.87
2018-09-01T12:14:04.528Z,25.75
2018-09-01T12:15:19.151Z,25.61
2018-09-01T12:16:19.175Z,25.36
2018-09-01T12:17:04.256Z,25.5
2018-09-01T12:18:04.285Z,25.7
2018-09-01T12:19:04.355Z,25.75
2018-09-01T12:21:04.619Z,25.65
2018-09-01T12:22:19.475Z,25.64
2018-09-01T12:23:04.726Z,25.45
2018-09-01T12:24:04.447Z,25.32
2018-09-01T12:25:04.736Z,25.47
2018-09-01T12:26:04.499Z,25.6
2018-09-01T12:27:04.525Z,25.57
2018-09-01T12:29:19.502Z,25.09
2018-09-01T12:30:19.526Z,24.84
2018-09-01T12:31:04.373Z,24.62
2018-09-01T12:32:04.666Z,24.39
2018-09-01T12:33:04.684Z,24.39
2018-09-01T12:35:04.743Z,24.34
2018-09-01T12:36:04.768Z,24.47
2018-09-01T12:37:05.047Z,24.37
2018-09-01T12:38:19.736Z,24.53
2018-09-01T12:39:05.108Z,24.78
2018-09-01T12:40:05.131Z,24.8
2018-09-01T12:41:04.897Z,24.8
2018-09-01T12:42:05.132Z,24.91
2018-09-01T12:43:05.209Z,25.23
2018-09-01T12:44:04.980Z,25.45
2018-09-01T12:45:05.264Z,25.42
2018-09-01T12:46:05.332Z,25.32
2018-09-01T12:47:19.977Z,25.32
2018-09-01T12:48:05.083Z,25.28
2018-09-01T12:49:05.372Z,25.25
2018-09-01T12:50:05.394Z,25.28
2018-09-01T12:51:05.429Z,25.38
2018-09-01T12:52:05.462Z,25.58
2018-09-01T12:53:05.351Z,25.42
2018-09-01T12:54:20.162Z,25.33
2018-09-01T12:55:05.537Z,25.06
2018-09-01T12:56:05.554Z,25.05
2018-09-01T12:57:05.577Z,25.13
2018-09-01T12:58:05.352Z,25.15
2018-09-01T12:59:05.632Z,24.78
2018-09-01T13:00:05.404Z,24.45
2018-09-01T13:01:05.687Z,24.46
2018-09-01T13:02:20.376Z,24.49
2018-09-01T13:03:05.743Z,24.42
2018-09-01T13:04:05.766Z,24.62
2018-09-01T13:05:05.804Z,24.76
2018-09-01T13:06:05.820Z,24.85
2018-09-01T13:07:05.589Z,24.88
2018-09-01T13:08:20.737Z,25.09
2018-09-01T13:09:20.567Z,25.08
2018-09-01T13:10:05.670Z,25.1
2018-09-01T13:11:05.955Z,25.17
2018-09-01T13:12:05.988Z,24.91
2018-09-01T13:14:06.035Z,25.18
2018-09-01T13:16:20.750Z,25.27
2018-09-01T13:17:06.120Z,25.21
2018-09-01T13:18:20.800Z,25.3
2018-09-01T13:19:06.175Z,25.51
2018-09-01T13:20:06.197Z,25.35
2018-09-01T13:21:05.702Z,25.39
2018-09-01T13:22:05.984Z,25.38
2018-09-01T13:23:06.272Z,25.08
2018-09-01T13:24:06.044Z,25.24
2018-09-01T13:25:06.323Z,25.45
2018-09-01T13:26:06.354Z,25.54
2018-09-01T13:27:06.383Z,25.39
2018-09-01T13:28:06.404Z,25.25
2018-09-01T13:29:06.432Z,25.32
2018-09-01T13:30:05.946Z,25.27
2018-09-01T13:31:06.481Z,25.33
2018-09-01T13:32:06.252Z,25.3
2018-09-01T13:33:06.282Z,25.15
2018-09-01T13:34:06.307Z,24.96
2018-09-01T13:35:20.994Z,24.91
2018-09-01T13:36:06.364Z,25.13
2018-09-01T13:37:06.403Z,25.2
2018-09-01T13:38:06.419Z,25.6
2018-09-01T13:39:06.653Z,25.65
2018-09-01T13:41:21.411Z,25.72
2018-09-01T13:42:06.518Z,25.65
2018-09-01T13:43:06.801Z,25.65